Weather at Jorge Chávez International Airport

Public forecast

Using degrees Celsius for public forecast. Weather courtesy of forecast.io.

Current aviation weather report (METAR) for Jorge Chávez International Airport

Retrieved 2020/12/01 04:00 UTC (51 minutes ago):

SPJC 010400Z 16009KT CAVOK 19/16 Q1015 NOSIG RMK PP000

Closest aviation forecast (TAF) to Jorge Chávez International Airport

Retrieved 2020-12-01 00:36 UTC (4 hours ago):

TAF SPJC 302310Z 0100/0124 18007KT 9999 BKN012 TX22/0119Z TN17/0111Z TEMPO 0108/0111 OVC009 BECMG 0114/0116 SCT020 BECMG 0118/0120 22011KT